Delran Township, New Jersey
Current Conditions -  °F | °C
As of 5:54 AM on Sunday 23 Nov 2014 (Local Time) from KPNE Reporting Station
Overcast Overcast  
Wind Chill: 40°   Ceiling: 10000
Heat Index: 43°   Visibility: 10mi
Dew Point: 23°   Wind: 5mph
Humidity: 45%   Direction: 220°SW
Pressure: 30.23"   Gusts: NA
Location:  40.0192°N, 74.9489°W
Report Text: KPNE 231054Z AUTO 22004KT 10SM OVC100 06/M05 A3023 RMK AO2 SLP236 T00611050 TSNO
Loading
Personal Weather Stations






























Interactive Weather Map New forecast layout! Learn more

10-Day Weather Forecast

Advertisements
Track Severe Weather on mobile